createdAt,value
2023-01-13T00:00:38.563Z,98756.20
2023-01-13T00:03:47.908Z,98752.80
2023-01-13T00:06:55.976Z,98753.80
2023-01-13T00:10:03.960Z,98755.40
2023-01-13T00:13:12.255Z,98753.00
2023-01-13T00:16:22.278Z,98754.20
2023-01-13T00:19:30.294Z,98742.60
2023-01-13T00:22:40.482Z,98748.40
2023-01-13T00:25:48.595Z,98742.80
2023-01-13T00:29:01.570Z,98742.60
2023-01-13T00:32:09.745Z,98740.80
2023-01-13T00:35:18.263Z,98741.00
2023-01-13T00:38:26.296Z,98746.40
2023-01-13T00:41:54.352Z,98746.40
2023-01-13T00:45:02.964Z,98745.40
2023-01-13T00:48:11.070Z,98749.00
2023-01-13T00:51:21.367Z,98745.40
2023-01-13T00:54:29.436Z,98741.60
2023-01-13T00:57:38.001Z,98739.00
2023-01-13T01:00:46.816Z,98739.60
2023-01-13T01:03:56.172Z,98739.60
2023-01-13T01:07:04.265Z,98734.40
2023-01-13T01:10:14.422Z,98733.20
2023-01-13T01:13:26.049Z,98734.40
2023-01-13T01:16:35.678Z,98734.40
2023-01-13T01:19:43.718Z,98737.20
2023-01-13T01:22:51.713Z,98733.80
2023-01-13T01:26:02.928Z,98729.40
2023-01-13T01:29:16.477Z,98733.00
2023-01-13T01:32:28.220Z,98714.80
2023-01-13T01:35:40.561Z,98714.00
2023-01-13T01:38:49.410Z,98712.80
2023-01-13T01:42:14.830Z,98707.80
2023-01-13T01:45:26.525Z,98701.40
2023-01-13T01:48:38.415Z,98698.40
2023-01-13T01:51:52.663Z,98696.20
2023-01-13T01:55:04.661Z,98691.40
2023-01-13T01:58:21.197Z,98698.60
2023-01-13T02:01:29.789Z,98693.80
2023-01-13T02:04:50.413Z,98696.60
2023-01-13T02:08:01.271Z,98690.80
2023-01-13T02:11:45.207Z,98692.20
2023-01-13T02:14:53.034Z,98690.40
2023-01-13T02:18:33.452Z,98689.00
2023-01-13T02:22:12.692Z,98685.40
2023-01-13T02:25:59.410Z,98680.60
2023-01-13T02:29:59.286Z,98677.60
2023-01-13T02:33:27.451Z,98676.60
2023-01-13T02:36:48.591Z,98674.60
2023-01-13T02:40:03.551Z,98673.60
2023-01-13T02:43:37.126Z,98671.00
2023-01-13T02:46:54.723Z,98665.80
2023-01-13T02:50:07.250Z,98666.20
2023-01-13T02:53:21.531Z,98655.80
2023-01-13T02:56:33.653Z,98652.80
2023-01-13T02:59:44.640Z,98649.40
2023-01-13T03:02:54.157Z,98648.20
2023-01-13T03:06:19.370Z,98646.60
2023-01-13T03:09:35.373Z,98647.60
2023-01-13T03:12:56.894Z,98640.00
2023-01-13T03:16:17.965Z,98632.40
2023-01-13T03:19:44.251Z,98636.20
2023-01-13T03:23:02.387Z,98633.40
2023-01-13T03:26:18.691Z,98635.40
2023-01-13T03:29:31.884Z,98636.00
2023-01-13T03:32:45.576Z,98633.80
2023-01-13T03:35:59.629Z,98624.00
2023-01-13T03:39:13.828Z,98626.20
2023-01-13T03:42:26.697Z,98624.80
2023-01-13T03:45:39.949Z,98625.20
2023-01-13T03:48:53.331Z,98622.80
2023-01-13T03:52:06.588Z,98628.60
2023-01-13T03:55:19.748Z,98632.40
2023-01-13T03:58:33.903Z,98633.40
2023-01-13T04:01:51.630Z,98639.00
2023-01-13T04:05:04.275Z,98639.80
2023-01-13T04:08:22.198Z,98632.60
2023-01-13T04:11:36.738Z,98630.40
2023-01-13T04:14:46.751Z,98631.00
2023-01-13T04:17:56.018Z,98629.80
2023-01-13T04:21:05.601Z,98628.20
2023-01-13T04:24:14.467Z,98628.80
2023-01-13T04:27:22.353Z,98632.60
2023-01-13T04:30:30.708Z,98625.00
2023-01-13T04:33:39.340Z,98633.80
2023-01-13T04:36:47.089Z,98637.60
2023-01-13T04:39:55.393Z,98634.20
2023-01-13T04:43:03.318Z,98637.40
2023-01-13T04:46:11.545Z,98640.20
2023-01-13T04:49:19.410Z,98634.80
2023-01-13T04:52:27.334Z,98635.20
2023-01-13T04:55:35.395Z,98635.80
2023-01-13T04:58:43.652Z,98634.80
2023-01-13T05:01:51.701Z,98638.40
2023-01-13T05:05:00.489Z,98642.80
2023-01-13T05:08:09.239Z,98641.60
2023-01-13T05:11:35.097Z,98644.60
2023-01-13T05:15:01.171Z,98645.20
2023-01-13T05:18:10.400Z,98652.80
2023-01-13T05:21:36.203Z,98655.40
2023-01-13T05:25:01.703Z,98652.80
2023-01-13T05:28:10.279Z,98656.40
2023-01-13T05:31:18.288Z,98651.00
2023-01-13T05:34:26.169Z,98657.00
2023-01-13T05:37:34.604Z,98654.60
2023-01-13T05:41:02.468Z,98651.20
2023-01-13T05:44:10.735Z,98649.40
2023-01-13T05:47:18.470Z,98646.60
2023-01-13T05:50:26.784Z,98641.20
2023-01-13T05:53:35.279Z,98637.60
2023-01-13T05:56:48.220Z,98640.80
2023-01-13T05:59:56.108Z,98639.20
2023-01-13T06:03:04.517Z,98629.40
2023-01-13T06:06:13.061Z,98635.80
2023-01-13T06:09:23.040Z,98630.80
2023-01-13T06:12:30.906Z,98632.20
2023-01-13T06:15:38.800Z,98632.00
2023-01-13T06:18:46.877Z,98633.60
2023-01-13T06:21:57.952Z,98634.00
2023-01-13T06:25:09.323Z,98640.40
2023-01-13T06:28:17.393Z,98638.80
2023-01-13T06:31:28.855Z,98646.00
2023-01-13T06:34:39.504Z,98649.60
2023-01-13T06:37:52.192Z,98648.40
2023-01-13T06:41:00.240Z,98647.20
2023-01-13T06:44:08.835Z,98652.40
2023-01-13T06:47:16.698Z,98655.60
2023-01-13T06:50:26.304Z,98660.00
2023-01-13T06:53:34.584Z,98658.40
2023-01-13T06:56:42.328Z,98662.80
2023-01-13T06:59:50.735Z,98662.00
2023-01-13T07:03:08.552Z,98666.00
2023-01-13T07:06:16.488Z,98661.40
2023-01-13T07:09:24.672Z,98659.40
2023-01-13T07:12:52.825Z,98654.40
2023-01-13T07:16:03.611Z,98658.80
2023-01-13T07:19:11.747Z,98661.40
2023-01-13T07:22:19.639Z,98655.80
2023-01-13T07:25:27.539Z,98659.80
2023-01-13T07:28:36.897Z,98661.40
2023-01-13T07:31:45.089Z,98656.40
2023-01-13T07:34:52.870Z,98658.00
2023-01-13T07:38:00.730Z,98659.40
2023-01-13T07:41:22.789Z,98662.80
2023-01-13T07:44:30.891Z,98673.60
2023-01-13T07:47:38.933Z,98667.80
2023-01-13T07:50:47.361Z,98668.20
2023-01-13T07:53:55.564Z,98666.60
2023-01-13T07:57:03.469Z,98678.60
2023-01-13T08:00:14.763Z,98683.80
2023-01-13T08:03:22.794Z,98683.40
2023-01-13T08:06:30.820Z,98688.00
2023-01-13T08:09:39.566Z,98690.80
2023-01-13T08:13:05.163Z,98699.40
2023-01-13T08:16:16.255Z,98701.80
2023-01-13T08:19:24.229Z,98702.40
2023-01-13T08:22:33.548Z,98709.80
2023-01-13T08:25:41.866Z,98709.80
2023-01-13T08:28:49.941Z,98714.40
2023-01-13T08:31:57.777Z,98712.80
2023-01-13T08:35:05.820Z,98715.80
2023-01-13T08:38:14.028Z,98717.40
2023-01-13T08:41:36.098Z,98723.00
2023-01-13T08:44:44.089Z,98721.60
2023-01-13T08:47:51.934Z,98719.80
2023-01-13T08:51:07.882Z,98714.80
2023-01-13T08:54:16.451Z,98719.80
2023-01-13T08:57:24.758Z,98726.60
2023-01-13T09:00:32.801Z,98729.80
2023-01-13T09:03:41.993Z,98726.60
2023-01-13T09:06:50.567Z,98725.40
2023-01-13T09:09:59.112Z,98716.60
2023-01-13T09:13:15.098Z,98714.80
2023-01-13T09:16:23.016Z,98717.60
2023-01-13T09:19:31.871Z,98718.80
2023-01-13T09:22:41.092Z,98718.80
2023-01-13T09:25:49.454Z,98721.40
2023-01-13T09:28:57.354Z,98725.00
2023-01-13T09:32:05.612Z,98724.00
2023-01-13T09:35:14.144Z,98725.40
2023-01-13T09:38:22.182Z,98723.60
2023-01-13T09:41:50.882Z,98725.60
2023-01-13T09:45:06.066Z,98729.80
2023-01-13T09:48:23.074Z,98725.00
2023-01-13T09:51:37.375Z,98711.20
2023-01-13T09:54:49.674Z,98714.00
2023-01-13T09:57:58.213Z,98714.20
2023-01-13T10:01:23.377Z,98712.20
2023-01-13T10:04:31.657Z,98719.40
2023-01-13T10:07:49.431Z,98722.60
2023-01-13T10:11:01.218Z,98719.80
2023-01-13T10:14:28.703Z,98719.20
2023-01-13T10:17:45.503Z,98712.40
2023-01-13T10:21:05.177Z,98709.00
2023-01-13T10:24:25.392Z,98693.20
2023-01-13T10:27:37.686Z,98691.40
2023-01-13T10:30:48.282Z,98695.60
2023-01-13T10:34:06.103Z,98688.40
2023-01-13T10:37:26.651Z,98684.00
2023-01-13T10:40:34.497Z,98678.60
2023-01-13T10:43:43.777Z,98672.40
2023-01-13T10:47:00.262Z,98665.80
2023-01-13T10:50:29.870Z,98659.60
2023-01-13T10:53:51.551Z,98651.80
2023-01-13T10:57:22.564Z,98656.00
2023-01-13T11:00:36.726Z,98654.40
2023-01-13T11:03:48.306Z,98648.20
2023-01-13T11:06:56.446Z,98654.60
2023-01-13T11:10:24.375Z,98650.60
2023-01-13T11:13:59.435Z,98655.60
2023-01-13T11:17:27.289Z,98654.20
2023-01-13T11:20:42.004Z,98649.40
2023-01-13T11:24:03.690Z,98647.20
2023-01-13T11:27:21.681Z,98636.60
2023-01-13T11:30:42.732Z,98631.20
2023-01-13T11:33:57.597Z,98625.40
2023-01-13T11:37:11.071Z,98610.00
2023-01-13T11:40:27.289Z,98597.60
2023-01-13T11:43:47.079Z,98583.40
2023-01-13T11:46:56.573Z,98583.20
2023-01-13T11:50:06.037Z,98575.80
2023-01-13T11:53:31.266Z,98569.40
2023-01-13T11:57:05.528Z,98568.80
2023-01-13T12:00:42.871Z,98557.80
2023-01-13T12:04:01.391Z,98552.00
2023-01-13T12:07:23.317Z,98558.20
2023-01-13T12:10:47.935Z,98558.40
2023-01-13T12:14:18.550Z,98565.20
2023-01-13T12:17:36.794Z,98566.60
2023-01-13T12:21:00.159Z,98563.60
2023-01-13T12:24:24.425Z,98555.60
2023-01-13T12:27:42.994Z,98569.40
2023-01-13T12:30:59.515Z,98566.60
2023-01-13T12:34:32.622Z,98553.60
2023-01-13T12:37:52.297Z,98543.60
2023-01-13T12:41:13.551Z,98543.80
2023-01-13T12:44:22.018Z,98553.80
2023-01-13T12:47:43.585Z,98553.80
2023-01-13T12:51:06.175Z,98551.20
2023-01-13T12:54:22.950Z,98546.80
2023-01-13T12:57:34.213Z,98534.60
2023-01-13T13:01:02.032Z,98530.80
2023-01-13T13:04:19.428Z,98536.00
2023-01-13T13:07:38.700Z,98525.20
2023-01-13T13:11:04.295Z,98522.40
2023-01-13T13:14:16.671Z,98530.60
2023-01-13T13:17:47.330Z,98533.40
2023-01-13T13:21:05.685Z,98543.40
2023-01-13T13:24:17.219Z,98550.80
2023-01-13T13:27:40.664Z,98560.80
2023-01-13T13:31:06.150Z,98565.40
2023-01-13T13:34:34.532Z,98562.40
2023-01-13T13:38:18.829Z,98575.20
2023-01-13T13:41:46.625Z,98583.00
2023-01-13T13:45:12.960Z,98579.60
2023-01-13T13:48:30.822Z,98586.80
2023-01-13T13:51:46.628Z,98593.00
2023-01-13T13:54:58.267Z,98592.40
2023-01-13T13:58:07.202Z,98589.20
2023-01-13T14:01:29.819Z,98590.40
2023-01-13T14:04:42.114Z,98592.20
2023-01-13T14:07:52.882Z,98592.40
2023-01-13T14:11:00.992Z,98594.40
2023-01-13T14:14:17.315Z,98591.80
2023-01-13T14:17:30.204Z,98590.40
2023-01-13T14:20:38.891Z,98587.60
2023-01-13T14:23:57.435Z,98597.20
2023-01-13T14:30:34.347Z,98601.80
2023-01-13T14:33:47.516Z,98601.00
2023-01-13T14:36:56.455Z,98601.40
2023-01-13T14:40:05.067Z,98606.40
2023-01-13T14:43:19.726Z,98603.40
2023-01-13T14:46:37.720Z,98600.00
2023-01-13T14:50:02.819Z,98593.80
2023-01-13T14:53:36.810Z,98594.00
2023-01-13T14:57:09.603Z,98587.40
2023-01-13T15:00:28.175Z,98582.60
2023-01-13T15:03:45.121Z,98583.60
2023-01-13T15:06:56.051Z,98568.60
2023-01-13T15:10:07.174Z,98564.20
2023-01-13T15:13:35.728Z,98566.80
2023-01-13T15:16:44.871Z,98577.80
2023-01-13T15:19:54.574Z,98582.80
2023-01-13T15:23:02.423Z,98591.20
2023-01-13T15:26:25.960Z,98591.20
2023-01-13T15:29:34.645Z,98596.20
2023-01-13T15:32:43.163Z,98594.20
2023-01-13T15:35:54.017Z,98599.40
2023-01-13T15:39:03.264Z,98605.60
2023-01-13T15:42:31.639Z,98603.60
2023-01-13T15:45:59.626Z,98607.60
2023-01-13T15:49:16.393Z,98601.40
2023-01-13T15:52:28.634Z,98600.00
2023-01-13T15:55:53.739Z,98595.00
2023-01-13T15:59:02.991Z,98587.00
2023-01-13T16:02:18.393Z,98585.20
2023-01-13T16:05:29.030Z,98594.00
2023-01-13T16:08:37.271Z,98587.40
2023-01-13T16:11:45.608Z,98603.20
2023-01-13T16:14:53.522Z,98605.00
2023-01-13T16:18:05.353Z,98609.00
2023-01-13T16:21:15.849Z,98613.00
2023-01-13T16:24:24.301Z,98611.40
2023-01-13T16:27:32.194Z,98615.60
2023-01-13T16:30:42.335Z,98609.00
2023-01-13T16:33:50.352Z,98615.80
2023-01-13T16:36:58.210Z,98621.20
2023-01-13T16:40:06.994Z,98621.40
2023-01-13T16:43:17.272Z,98623.40
2023-01-13T16:46:28.547Z,98624.40
2023-01-13T16:49:36.339Z,98625.60
2023-01-13T16:52:44.395Z,98620.40
2023-01-13T16:55:52.898Z,98624.60
2023-01-13T16:59:07.809Z,98630.20
2023-01-13T17:02:21.044Z,98632.40
2023-01-13T17:05:29.780Z,98629.20
2023-01-13T17:08:37.584Z,98631.20
2023-01-13T17:11:46.002Z,98634.20
2023-01-13T17:14:53.865Z,98636.60
2023-01-13T17:18:01.962Z,98634.80
2023-01-13T17:21:10.035Z,98639.00
2023-01-13T17:24:18.342Z,98644.00
2023-01-13T17:27:26.095Z,98646.00
2023-01-13T17:30:34.047Z,98641.00
2023-01-13T17:33:42.126Z,98646.40
2023-01-13T17:36:50.577Z,98639.20
2023-01-13T17:39:58.567Z,98636.80
2023-01-13T17:43:06.546Z,98640.60
2023-01-13T17:46:18.746Z,98637.80
2023-01-13T17:49:26.793Z,98640.80
2023-01-13T17:52:34.710Z,98639.40
2023-01-13T17:55:43.142Z,98636.80
2023-01-13T17:58:51.051Z,98635.00
2023-01-13T18:01:59.208Z,98632.20
2023-01-13T18:05:07.739Z,98631.80
2023-01-13T18:08:15.956Z,98642.40
2023-01-13T18:11:24.899Z,98650.40
2023-01-13T18:14:33.311Z,98653.60
2023-01-13T18:17:41.208Z,98651.00
2023-01-13T18:21:08.589Z,98662.00
2023-01-13T18:24:32.397Z,98661.80
2023-01-13T18:27:42.094Z,98668.80
2023-01-13T18:30:51.101Z,98667.20
2023-01-13T18:33:59.410Z,98674.20
2023-01-13T18:37:08.986Z,98676.00
2023-01-13T18:40:17.787Z,98673.00
2023-01-13T18:43:25.602Z,98668.00
2023-01-13T18:46:35.186Z,98657.20
2023-01-13T18:49:43.679Z,98649.60
2023-01-13T18:52:51.862Z,98646.40
2023-01-13T18:55:59.633Z,98655.40
2023-01-13T18:59:08.209Z,98657.00
2023-01-13T19:02:20.066Z,98651.60
2023-01-13T19:05:28.015Z,98661.60
2023-01-13T19:08:35.939Z,98659.20
2023-01-13T19:11:46.823Z,98670.00
2023-01-13T19:14:56.006Z,98668.40
2023-01-13T19:18:04.114Z,98676.40
2023-01-13T19:21:12.557Z,98695.20
2023-01-13T19:24:22.243Z,98700.40
2023-01-13T19:27:31.637Z,98709.60
2023-01-13T19:30:40.601Z,98711.40
2023-01-13T19:33:50.077Z,98720.60
2023-01-13T19:36:59.978Z,98726.00
2023-01-13T19:40:11.337Z,98728.00
2023-01-13T19:43:37.119Z,98734.60
2023-01-13T19:46:47.469Z,98731.40
2023-01-13T19:49:55.413Z,98734.80
2023-01-13T19:53:03.238Z,98728.60
2023-01-13T19:56:16.184Z,98725.40
2023-01-13T19:59:29.303Z,98714.20
2023-01-13T20:02:37.643Z,98717.80
2023-01-13T20:05:45.623Z,98726.40
2023-01-13T20:08:53.985Z,98734.80
2023-01-13T20:12:03.803Z,98755.60
2023-01-13T20:15:12.052Z,98785.00
2023-01-13T20:18:19.850Z,98784.20
2023-01-13T20:21:27.996Z,98778.80
2023-01-13T20:24:35.742Z,98765.80
2023-01-13T20:27:45.077Z,98755.20
2023-01-13T20:30:53.466Z,98760.60
2023-01-13T20:34:01.688Z,98755.00
2023-01-13T20:37:09.404Z,98744.00
2023-01-13T20:40:18.962Z,98737.20
2023-01-13T20:43:27.991Z,98731.60
2023-01-13T20:46:35.960Z,98727.40
2023-01-13T20:49:44.206Z,98730.80
2023-01-13T20:52:52.783Z,98718.60
2023-01-13T20:56:00.617Z,98711.20
2023-01-13T20:59:08.705Z,98715.00
2023-01-13T21:02:19.418Z,98729.80
2023-01-13T21:05:28.843Z,98722.20
2023-01-13T21:08:36.957Z,98709.20
2023-01-13T21:12:08.046Z,98689.20
2023-01-13T21:15:20.330Z,98677.40
2023-01-13T21:18:45.913Z,98665.80
2023-01-13T21:21:53.931Z,98702.00
2023-01-13T21:25:02.676Z,98706.60
2023-01-13T21:28:14.279Z,98708.00
2023-01-13T21:31:22.672Z,98693.00
2023-01-13T21:34:30.614Z,98689.60
2023-01-13T21:37:42.147Z,98683.40
2023-01-13T21:41:01.558Z,98683.80
2023-01-13T21:44:33.415Z,98691.00
2023-01-13T21:47:50.405Z,98706.00
2023-01-13T21:51:05.153Z,98747.80
2023-01-13T21:54:13.439Z,98802.20
2023-01-13T21:57:21.320Z,98825.40
2023-01-13T22:00:34.220Z,98832.80
2023-01-13T22:04:01.251Z,98833.40
2023-01-13T22:07:08.937Z,98844.80
2023-01-13T22:10:19.881Z,98844.60
2023-01-13T22:13:47.054Z,98846.80
2023-01-13T22:17:00.466Z,98850.60
2023-01-13T22:20:11.286Z,98847.40
2023-01-13T22:23:21.500Z,98846.00
2023-01-13T22:26:30.023Z,98840.40
2023-01-13T22:29:38.064Z,98834.20
2023-01-13T22:32:46.717Z,98831.00
2023-01-13T22:35:59.956Z,98826.00
2023-01-13T22:39:08.879Z,98813.00
2023-01-13T22:42:17.011Z,98804.20
2023-01-13T22:45:25.009Z,98778.40
2023-01-13T22:48:32.926Z,98757.20
2023-01-13T22:51:41.138Z,98748.80
2023-01-13T22:54:49.431Z,98750.00
2023-01-13T22:57:57.155Z,98763.80
2023-01-13T23:01:16.150Z,98764.40
2023-01-13T23:04:24.196Z,98766.20
2023-01-13T23:07:32.527Z,98761.60
2023-01-13T23:10:41.051Z,98763.80
2023-01-13T23:13:49.402Z,98752.60
2023-01-13T23:16:57.739Z,98747.20
2023-01-13T23:20:06.591Z,98742.80
2023-01-13T23:23:14.459Z,98743.80
2023-01-13T23:26:23.471Z,98745.60
2023-01-13T23:29:31.286Z,98735.60
2023-01-13T23:32:40.304Z,98738.80
2023-01-13T23:35:58.005Z,98742.20
2023-01-13T23:39:06.449Z,98755.40
2023-01-13T23:42:14.666Z,98757.60
2023-01-13T23:45:22.648Z,98764.40
2023-01-13T23:48:30.823Z,98761.80
2023-01-13T23:51:38.936Z,98763.60
2023-01-13T23:54:47.131Z,98769.80
2023-01-13T23:57:55.303Z,98772.80
